sensor_id;sensor_type;location;lat;lon;timestamp;P1;durP1;ratioP1;P2;durP2;ratioP2
23123;SDS011;11731;48.592;8.858;2023-07-08T00:01:19;8.17;;;5.30;;
23123;SDS011;11731;48.592;8.858;2023-07-08T00:03:51;8.77;;;5.60;;
23123;SDS011;11731;48.592;8.858;2023-07-08T00:06:45;7.60;;;4.83;;
23123;SDS011;11731;48.592;8.858;2023-07-08T00:09:12;6.97;;;4.83;;
23123;SDS011;11731;48.592;8.858;2023-07-08T00:11:40;8.77;;;5.60;;
23123;SDS011;11731;48.592;8.858;2023-07-08T00:14:35;10.10;;;6.13;;
23123;SDS011;11731;48.592;8.858;2023-07-08T00:17:02;8.33;;;4.83;;
23123;SDS011;11731;48.592;8.858;2023-07-08T00:20:10;8.87;;;4.90;;
23123;SDS011;11731;48.592;8.858;2023-07-08T00:22:40;10.83;;;5.87;;
23123;SDS011;11731;48.592;8.858;2023-07-08T00:25:08;8.57;;;5.50;;
23123;SDS011;11731;48.592;8.858;2023-07-08T00:27:36;7.70;;;6.23;;
23123;SDS011;11731;48.592;8.858;2023-07-08T00:30:10;9.47;;;6.07;;
23123;SDS011;11731;48.592;8.858;2023-07-08T00:32:46;10.37;;;5.97;;
23123;SDS011;11731;48.592;8.858;2023-07-08T00:35:19;12.00;;;6.13;;
23123;SDS011;11731;48.592;8.858;2023-07-08T00:37:47;7.67;;;5.23;;
23123;SDS011;11731;48.592;8.858;2023-07-08T00:40:15;10.53;;;5.70;;
23123;SDS011;11731;48.592;8.858;2023-07-08T00:42:45;7.93;;;5.93;;
23123;SDS011;11731;48.592;8.858;2023-07-08T00:45:49;8.33;;;5.57;;
23123;SDS011;11731;48.592;8.858;2023-07-08T00:48:19;9.43;;;5.17;;
23123;SDS011;11731;48.592;8.858;2023-07-08T00:53:33;10.33;;;5.77;;
23123;SDS011;11731;48.592;8.858;2023-07-08T00:56:18;9.00;;;5.73;;
23123;SDS011;11731;48.592;8.858;2023-07-08T00:59:07;10.33;;;5.43;;
23123;SDS011;11731;48.592;8.858;2023-07-08T01:01:39;12.70;;;5.80;;
23123;SDS011;11731;48.592;8.858;2023-07-08T01:04:11;7.87;;;5.40;;
23123;SDS011;11731;48.592;8.858;2023-07-08T01:06:46;9.47;;;5.00;;
23123;SDS011;11731;48.592;8.858;2023-07-08T01:09:37;7.57;;;5.80;;
23123;SDS011;11731;48.592;8.858;2023-07-08T01:18:13;6.97;;;5.30;;
23123;SDS011;11731;48.592;8.858;2023-07-08T01:20:42;11.20;;;5.67;;
23123;SDS011;11731;48.592;8.858;2023-07-08T01:23:13;10.90;;;5.80;;
23123;SDS011;11731;48.592;8.858;2023-07-08T01:25:41;8.93;;;6.00;;
23123;SDS011;11731;48.592;8.858;2023-07-08T01:28:12;7.07;;;4.90;;
23123;SDS011;11731;48.592;8.858;2023-07-08T01:33:38;7.77;;;5.20;;
23123;SDS011;11731;48.592;8.858;2023-07-08T01:36:18;8.37;;;5.23;;
23123;SDS011;11731;48.592;8.858;2023-07-08T01:38:47;10.27;;;5.83;;
23123;SDS011;11731;48.592;8.858;2023-07-08T01:41:15;8.10;;;5.40;;
23123;SDS011;11731;48.592;8.858;2023-07-08T01:43:42;7.83;;;4.87;;
23123;SDS011;11731;48.592;8.858;2023-07-08T01:46:11;8.77;;;5.67;;
23123;SDS011;11731;48.592;8.858;2023-07-08T01:50:50;8.80;;;5.30;;
23123;SDS011;11731;48.592;8.858;2023-07-08T01:51:59;9.83;;;5.33;;
23123;SDS011;11731;48.592;8.858;2023-07-08T01:54:28;9.63;;;5.30;;
23123;SDS011;11731;48.592;8.858;2023-07-08T01:56:55;7.47;;;5.50;;
23123;SDS011;11731;48.592;8.858;2023-07-08T01:59:31;10.90;;;5.23;;
23123;SDS011;11731;48.592;8.858;2023-07-08T02:01:58;8.50;;;5.10;;
23123;SDS011;11731;48.592;8.858;2023-07-08T02:04:25;7.27;;;5.13;;
23123;SDS011;11731;48.592;8.858;2023-07-08T02:07:08;7.60;;;4.73;;
23123;SDS011;11731;48.592;8.858;2023-07-08T02:10:04;8.50;;;5.47;;
23123;SDS011;11731;48.592;8.858;2023-07-08T02:12:32;7.30;;;4.97;;
23123;SDS011;11731;48.592;8.858;2023-07-08T02:15:29;8.27;;;5.07;;
23123;SDS011;11731;48.592;8.858;2023-07-08T02:17:53;7.73;;;5.30;;
23123;SDS011;11731;48.592;8.858;2023-07-08T02:20:21;7.87;;;4.90;;
23123;SDS011;11731;48.592;8.858;2023-07-08T02:23:02;7.53;;;5.10;;
23123;SDS011;11731;48.592;8.858;2023-07-08T02:28:17;8.90;;;5.50;;
23123;SDS011;11731;48.592;8.858;2023-07-08T02:30:49;8.03;;;5.10;;
23123;SDS011;11731;48.592;8.858;2023-07-08T02:33:16;10.23;;;5.40;;
23123;SDS011;11731;48.592;8.858;2023-07-08T02:35:43;10.70;;;5.50;;
23123;SDS011;11731;48.592;8.858;2023-07-08T02:38:13;9.47;;;5.03;;
23123;SDS011;11731;48.592;8.858;2023-07-08T02:40:43;9.13;;;5.10;;
23123;SDS011;11731;48.592;8.858;2023-07-08T02:43:11;11.13;;;5.30;;
23123;SDS011;11731;48.592;8.858;2023-07-08T02:49:20;9.00;;;5.13;;
23123;SDS011;11731;48.592;8.858;2023-07-08T02:51:48;7.27;;;4.80;;
23123;SDS011;11731;48.592;8.858;2023-07-08T02:54:39;7.13;;;4.83;;
23123;SDS011;11731;48.592;8.858;2023-07-08T02:57:06;7.87;;;5.00;;
23123;SDS011;11731;48.592;8.858;2023-07-08T02:59:37;7.37;;;5.60;;
23123;SDS011;11731;48.592;8.858;2023-07-08T03:02:30;8.20;;;5.23;;
23123;SDS011;11731;48.592;8.858;2023-07-08T03:04:57;8.90;;;4.57;;
23123;SDS011;11731;48.592;8.858;2023-07-08T03:08:40;7.80;;;5.10;;
23123;SDS011;11731;48.592;8.858;2023-07-08T03:10:47;7.80;;;5.23;;
23123;SDS011;11731;48.592;8.858;2023-07-08T03:13:18;10.13;;;5.37;;
23123;SDS011;11731;48.592;8.858;2023-07-08T03:15:46;7.93;;;5.13;;
23123;SDS011;11731;48.592;8.858;2023-07-08T03:18:13;9.43;;;6.07;;
23123;SDS011;11731;48.592;8.858;2023-07-08T03:20:54;7.90;;;5.03;;
23123;SDS011;11731;48.592;8.858;2023-07-08T03:23:59;8.53;;;4.60;;
23123;SDS011;11731;48.592;8.858;2023-07-08T03:26:41;8.80;;;5.07;;
23123;SDS011;11731;48.592;8.858;2023-07-08T03:29:08;9.73;;;5.57;;
23123;SDS011;11731;48.592;8.858;2023-07-08T03:31:41;9.37;;;4.97;;
23123;SDS011;11731;48.592;8.858;2023-07-08T03:34:11;7.70;;;5.20;;
23123;SDS011;11731;48.592;8.858;2023-07-08T03:36:40;7.50;;;5.00;;
23123;SDS011;11731;48.592;8.858;2023-07-08T03:39:20;8.43;;;5.53;;
23123;SDS011;11731;48.592;8.858;2023-07-08T03:42:21;7.53;;;5.13;;
23123;SDS011;11731;48.592;8.858;2023-07-08T03:45:03;8.20;;;5.30;;
23123;SDS011;11731;48.592;8.858;2023-07-08T03:50:35;7.70;;;5.37;;
23123;SDS011;11731;48.592;8.858;2023-07-08T03:53:02;6.93;;;5.43;;
23123;SDS011;11731;48.592;8.858;2023-07-08T03:55:31;10.17;;;5.70;;
23123;SDS011;11731;48.592;8.858;2023-07-08T04:03:32;7.90;;;5.47;;
23123;SDS011;11731;48.592;8.858;2023-07-08T04:06:01;11.57;;;5.60;;
23123;SDS011;11731;48.592;8.858;2023-07-08T04:08:27;9.43;;;5.23;;
23123;SDS011;11731;48.592;8.858;2023-07-08T04:11:00;9.10;;;4.80;;
23123;SDS011;11731;48.592;8.858;2023-07-08T04:14:36;7.27;;;5.20;;
23123;SDS011;11731;48.592;8.858;2023-07-08T04:16:43;8.83;;;5.47;;
23123;SDS011;11731;48.592;8.858;2023-07-08T04:19:19;9.50;;;5.77;;
23123;SDS011;11731;48.592;8.858;2023-07-08T04:21:53;8.80;;;5.40;;
23123;SDS011;11731;48.592;8.858;2023-07-08T04:24:20;9.73;;;5.17;;
23123;SDS011;11731;48.592;8.858;2023-07-08T04:26:47;6.37;;;5.10;;
23123;SDS011;11731;48.592;8.858;2023-07-08T04:29:16;9.10;;;5.43;;
23123;SDS011;11731;48.592;8.858;2023-07-08T04:31:45;11.60;;;5.53;;
23123;SDS011;11731;48.592;8.858;2023-07-08T04:34:13;8.57;;;5.53;;
23123;SDS011;11731;48.592;8.858;2023-07-08T04:37:00;8.53;;;4.90;;
23123;SDS011;11731;48.592;8.858;2023-07-08T04:39:29;10.47;;;6.17;;
23123;SDS011;11731;48.592;8.858;2023-07-08T04:41:56;7.30;;;4.87;;
23123;SDS011;11731;48.592;8.858;2023-07-08T04:44:23;7.13;;;5.27;;
23123;SDS011;11731;48.592;8.858;2023-07-08T04:46:53;7.90;;;5.40;;
23123;SDS011;11731;48.592;8.858;2023-07-08T04:49:22;9.77;;;5.43;;
23123;SDS011;11731;48.592;8.858;2023-07-08T04:51:56;7.13;;;4.90;;
23123;SDS011;11731;48.592;8.858;2023-07-08T04:54:25;8.07;;;5.50;;
23123;SDS011;11731;48.592;8.858;2023-07-08T04:56:52;9.30;;;5.80;;
23123;SDS011;11731;48.592;8.858;2023-07-08T04:59:34;8.10;;;6.03;;
23123;SDS011;11731;48.592;8.858;2023-07-08T05:02:02;8.47;;;5.47;;
23123;SDS011;11731;48.592;8.858;2023-07-08T05:04:29;9.00;;;5.37;;
23123;SDS011;11731;48.592;8.858;2023-07-08T05:07:09;11.03;;;5.30;;
23123;SDS011;11731;48.592;8.858;2023-07-08T05:09:37;10.50;;;5.10;;
23123;SDS011;11731;48.592;8.858;2023-07-08T05:12:04;9.20;;;5.70;;
23123;SDS011;11731;48.592;8.858;2023-07-08T05:14:40;8.67;;;6.10;;
23123;SDS011;11731;48.592;8.858;2023-07-08T05:17:07;10.90;;;5.20;;
23123;SDS011;11731;48.592;8.858;2023-07-08T05:19:34;9.63;;;5.93;;
23123;SDS011;11731;48.592;8.858;2023-07-08T05:22:01;8.73;;;5.63;;
23123;SDS011;11731;48.592;8.858;2023-07-08T05:24:28;9.83;;;5.50;;
23123;SDS011;11731;48.592;8.858;2023-07-08T05:26:56;8.23;;;6.17;;
23123;SDS011;11731;48.592;8.858;2023-07-08T05:29:54;10.00;;;6.77;;
23123;SDS011;11731;48.592;8.858;2023-07-08T05:32:26;13.23;;;6.47;;
23123;SDS011;11731;48.592;8.858;2023-07-08T05:36:06;10.17;;;6.07;;
23123;SDS011;11731;48.592;8.858;2023-07-08T05:38:32;9.57;;;5.47;;
23123;SDS011;11731;48.592;8.858;2023-07-08T05:40:59;10.90;;;5.97;;
23123;SDS011;11731;48.592;8.858;2023-07-08T05:43:28;12.80;;;6.57;;
23123;SDS011;11731;48.592;8.858;2023-07-08T05:45:59;8.20;;;5.70;;
23123;SDS011;11731;48.592;8.858;2023-07-08T05:48:26;9.87;;;6.37;;
23123;SDS011;11731;48.592;8.858;2023-07-08T05:50:53;11.37;;;6.30;;
23123;SDS011;11731;48.592;8.858;2023-07-08T05:53:44;11.17;;;6.37;;
23123;SDS011;11731;48.592;8.858;2023-07-08T05:56:11;9.00;;;6.00;;
23123;SDS011;11731;48.592;8.858;2023-07-08T05:58:40;8.70;;;5.63;;
23123;SDS011;11731;48.592;8.858;2023-07-08T06:01:20;8.63;;;6.20;;
23123;SDS011;11731;48.592;8.858;2023-07-08T06:03:47;7.80;;;6.17;;
23123;SDS011;11731;48.592;8.858;2023-07-08T06:06:15;7.87;;;6.10;;
23123;SDS011;11731;48.592;8.858;2023-07-08T06:08:42;8.33;;;6.17;;
23123;SDS011;11731;48.592;8.858;2023-07-08T06:11:09;8.50;;;5.60;;
23123;SDS011;11731;48.592;8.858;2023-07-08T06:13:36;11.83;;;6.93;;
23123;SDS011;11731;48.592;8.858;2023-07-08T06:16:04;10.43;;;6.37;;
23123;SDS011;11731;48.592;8.858;2023-07-08T06:18:47;9.97;;;6.90;;
23123;SDS011;11731;48.592;8.858;2023-07-08T06:21:14;10.43;;;6.50;;
23123;SDS011;11731;48.592;8.858;2023-07-08T06:23:40;9.07;;;6.53;;
23123;SDS011;11731;48.592;8.858;2023-07-08T06:26:10;13.13;;;7.50;;
23123;SDS011;11731;48.592;8.858;2023-07-08T06:28:57;11.40;;;7.23;;
23123;SDS011;11731;48.592;8.858;2023-07-08T06:31:27;13.13;;;7.57;;
23123;SDS011;11731;48.592;8.858;2023-07-08T06:37:02;16.47;;;9.43;;
23123;SDS011;11731;48.592;8.858;2023-07-08T06:39:29;26.47;;;12.40;;
23123;SDS011;11731;48.592;8.858;2023-07-08T06:42:02;25.50;;;10.77;;
23123;SDS011;11731;48.592;8.858;2023-07-08T06:44:30;13.87;;;8.10;;
23123;SDS011;11731;48.592;8.858;2023-07-08T06:50:09;10.03;;;6.50;;
23123;SDS011;11731;48.592;8.858;2023-07-08T06:52:35;13.53;;;7.53;;
23123;SDS011;11731;48.592;8.858;2023-07-08T06:55:03;8.60;;;6.43;;
23123;SDS011;11731;48.592;8.858;2023-07-08T06:57:32;8.43;;;6.40;;
23123;SDS011;11731;48.592;8.858;2023-07-08T06:59:59;12.53;;;7.07;;
23123;SDS011;11731;48.592;8.858;2023-07-08T07:02:26;9.63;;;6.57;;
23123;SDS011;11731;48.592;8.858;2023-07-08T07:04:53;8.83;;;6.23;;
23123;SDS011;11731;48.592;8.858;2023-07-08T07:07:22;10.43;;;6.83;;
23123;SDS011;11731;48.592;8.858;2023-07-08T07:09:51;9.67;;;6.37;;
23123;SDS011;11731;48.592;8.858;2023-07-08T07:12:20;9.90;;;6.30;;
23123;SDS011;11731;48.592;8.858;2023-07-08T07:14:48;12.57;;;6.20;;
23123;SDS011;11731;48.592;8.858;2023-07-08T07:17:17;9.80;;;5.77;;
23123;SDS011;11731;48.592;8.858;2023-07-08T07:19:44;8.23;;;5.77;;
23123;SDS011;11731;48.592;8.858;2023-07-08T07:22:11;11.00;;;6.80;;
23123;SDS011;11731;48.592;8.858;2023-07-08T07:24:39;11.77;;;6.43;;
23123;SDS011;11731;48.592;8.858;2023-07-08T07:27:06;7.07;;;5.70;;
23123;SDS011;11731;48.592;8.858;2023-07-08T07:29:41;9.43;;;5.90;;
23123;SDS011;11731;48.592;8.858;2023-07-08T07:32:08;10.53;;;6.57;;
23123;SDS011;11731;48.592;8.858;2023-07-08T07:34:36;6.33;;;5.40;;
23123;SDS011;11731;48.592;8.858;2023-07-08T07:37:19;8.93;;;6.03;;
23123;SDS011;11731;48.592;8.858;2023-07-08T07:39:49;8.50;;;5.90;;
23123;SDS011;11731;48.592;8.858;2023-07-08T07:42:16;12.17;;;5.13;;
23123;SDS011;11731;48.592;8.858;2023-07-08T07:44:44;7.97;;;5.67;;
23123;SDS011;11731;48.592;8.858;2023-07-08T07:47:11;9.93;;;5.60;;
23123;SDS011;11731;48.592;8.858;2023-07-08T07:49:39;10.13;;;6.57;;
23123;SDS011;11731;48.592;8.858;2023-07-08T07:52:06;8.37;;;5.73;;
23123;SDS011;11731;48.592;8.858;2023-07-08T07:54:36;8.13;;;6.00;;
23123;SDS011;11731;48.592;8.858;2023-07-08T07:57:12;7.73;;;6.17;;
23123;SDS011;11731;48.592;8.858;2023-07-08T08:02:24;8.53;;;5.80;;
23123;SDS011;11731;48.592;8.858;2023-07-08T08:04:51;9.10;;;6.07;;
23123;SDS011;11731;48.592;8.858;2023-07-08T08:07:27;11.60;;;6.37;;
23123;SDS011;11731;48.592;8.858;2023-07-08T08:09:53;9.97;;;6.20;;
23123;SDS011;11731;48.592;8.858;2023-07-08T08:12:22;10.97;;;5.90;;
23123;SDS011;11731;48.592;8.858;2023-07-08T08:14:52;7.70;;;5.83;;
23123;SDS011;11731;48.592;8.858;2023-07-08T08:17:19;11.70;;;6.20;;
23123;SDS011;11731;48.592;8.858;2023-07-08T08:19:46;11.07;;;6.20;;
23123;SDS011;11731;48.592;8.858;2023-07-08T08:22:13;10.23;;;6.33;;
23123;SDS011;11731;48.592;8.858;2023-07-08T08:24:40;8.10;;;6.10;;
23123;SDS011;11731;48.592;8.858;2023-07-08T08:27:09;8.83;;;5.83;;
23123;SDS011;11731;48.592;8.858;2023-07-08T08:29:40;7.83;;;5.40;;
23123;SDS011;11731;48.592;8.858;2023-07-08T08:32:28;9.87;;;5.50;;
23123;SDS011;11731;48.592;8.858;2023-07-08T08:34:55;9.73;;;5.60;;
23123;SDS011;11731;48.592;8.858;2023-07-08T08:37:22;8.00;;;5.50;;
23123;SDS011;11731;48.592;8.858;2023-07-08T08:39:49;9.40;;;5.33;;
23123;SDS011;11731;48.592;8.858;2023-07-08T08:42:16;9.93;;;5.50;;
23123;SDS011;11731;48.592;8.858;2023-07-08T08:44:49;9.73;;;5.13;;
23123;SDS011;11731;48.592;8.858;2023-07-08T08:47:19;6.73;;;4.63;;
23123;SDS011;11731;48.592;8.858;2023-07-08T08:49:53;8.73;;;4.50;;
23123;SDS011;11731;48.592;8.858;2023-07-08T08:52:26;7.60;;;5.07;;
23123;SDS011;11731;48.592;8.858;2023-07-08T08:54:53;6.97;;;5.00;;
23123;SDS011;11731;48.592;8.858;2023-07-08T08:57:26;4.50;;;4.10;;
23123;SDS011;11731;48.592;8.858;2023-07-08T09:00:01;8.37;;;5.03;;
23123;SDS011;11731;48.592;8.858;2023-07-08T09:02:30;8.77;;;4.73;;
23123;SDS011;11731;48.592;8.858;2023-07-08T09:05:03;6.37;;;4.20;;
23123;SDS011;11731;48.592;8.858;2023-07-08T09:07:34;6.60;;;4.47;;
23123;SDS011;11731;48.592;8.858;2023-07-08T09:10:09;7.80;;;4.80;;
23123;SDS011;11731;48.592;8.858;2023-07-08T09:12:45;8.80;;;4.10;;
23123;SDS011;11731;48.592;8.858;2023-07-08T09:15:19;6.20;;;3.60;;
23123;SDS011;11731;48.592;8.858;2023-07-08T09:17:46;6.77;;;3.60;;
23123;SDS011;11731;48.592;8.858;2023-07-08T09:20:20;4.30;;;3.30;;
23123;SDS011;11731;48.592;8.858;2023-07-08T09:22:51;3.93;;;2.73;;
23123;SDS011;11731;48.592;8.858;2023-07-08T09:25:37;4.10;;;3.17;;
23123;SDS011;11731;48.592;8.858;2023-07-08T09:28:12;3.60;;;2.57;;
23123;SDS011;11731;48.592;8.858;2023-07-08T09:30:46;4.40;;;2.70;;
23123;SDS011;11731;48.592;8.858;2023-07-08T09:36:50;4.43;;;2.30;;
23123;SDS011;11731;48.592;8.858;2023-07-08T09:39:35;3.73;;;2.60;;
23123;SDS011;11731;48.592;8.858;2023-07-08T09:42:29;4.27;;;2.50;;
23123;SDS011;11731;48.592;8.858;2023-07-08T09:45:02;6.37;;;2.90;;
23123;SDS011;11731;48.592;8.858;2023-07-08T09:47:38;3.23;;;2.30;;
23123;SDS011;11731;48.592;8.858;2023-07-08T09:50:15;2.40;;;1.97;;
23123;SDS011;11731;48.592;8.858;2023-07-08T09:52:45;3.77;;;2.40;;
23123;SDS011;11731;48.592;8.858;2023-07-08T09:55:15;3.20;;;2.00;;
23123;SDS011;11731;48.592;8.858;2023-07-08T09:58:28;4.30;;;2.23;;
23123;SDS011;11731;48.592;8.858;2023-07-08T10:00:49;6.47;;;3.10;;
23123;SDS011;11731;48.592;8.858;2023-07-08T10:03:21;5.33;;;3.43;;
23123;SDS011;11731;48.592;8.858;2023-07-08T10:05:51;4.17;;;3.20;;
23123;SDS011;11731;48.592;8.858;2023-07-08T10:08:28;3.73;;;3.03;;
23123;SDS011;11731;48.592;8.858;2023-07-08T10:13:34;5.63;;;3.27;;
23123;SDS011;11731;48.592;8.858;2023-07-08T10:16:09;3.73;;;2.67;;
23123;SDS011;11731;48.592;8.858;2023-07-08T10:18:41;4.43;;;3.00;;
23123;SDS011;11731;48.592;8.858;2023-07-08T10:21:09;3.53;;;2.30;;
23123;SDS011;11731;48.592;8.858;2023-07-08T10:23:43;2.93;;;2.60;;
23123;SDS011;11731;48.592;8.858;2023-07-08T10:26:18;3.73;;;2.50;;
23123;SDS011;11731;48.592;8.858;2023-07-08T10:28:54;3.57;;;2.77;;
23123;SDS011;11731;48.592;8.858;2023-07-08T10:33:40;5.90;;;3.03;;
23123;SDS011;11731;48.592;8.858;2023-07-08T10:34:44;4.73;;;3.60;;
23123;SDS011;11731;48.592;8.858;2023-07-08T10:37:19;4.43;;;3.03;;
23123;SDS011;11731;48.592;8.858;2023-07-08T10:39:59;4.27;;;2.13;;
23123;SDS011;11731;48.592;8.858;2023-07-08T10:42:41;2.87;;;2.30;;
23123;SDS011;11731;48.592;8.858;2023-07-08T10:45:34;7.30;;;2.70;;
23123;SDS011;11731;48.592;8.858;2023-07-08T10:48:13;3.40;;;2.20;;
23123;SDS011;11731;48.592;8.858;2023-07-08T10:57:06;2.27;;;2.00;;
23123;SDS011;11731;48.592;8.858;2023-07-08T10:59:50;4.53;;;1.90;;
23123;SDS011;11731;48.592;8.858;2023-07-08T11:02:31;4.00;;;2.20;;
23123;SDS011;11731;48.592;8.858;2023-07-08T11:05:28;3.03;;;2.00;;
23123;SDS011;11731;48.592;8.858;2023-07-08T11:08:04;2.80;;;2.17;;
23123;SDS011;11731;48.592;8.858;2023-07-08T11:10:38;3.70;;;2.40;;
23123;SDS011;11731;48.592;8.858;2023-07-08T11:13:14;4.27;;;2.10;;
23123;SDS011;11731;48.592;8.858;2023-07-08T11:15:54;2.73;;;2.00;;
23123;SDS011;11731;48.592;8.858;2023-07-08T11:18:28;4.97;;;2.27;;
23123;SDS011;11731;48.592;8.858;2023-07-08T11:21:06;3.03;;;1.80;;
23123;SDS011;11731;48.592;8.858;2023-07-08T11:23:38;3.23;;;2.47;;
23123;SDS011;11731;48.592;8.858;2023-07-08T11:26:18;3.03;;;2.17;;
23123;SDS011;11731;48.592;8.858;2023-07-08T11:28:52;4.10;;;2.30;;
23123;SDS011;11731;48.592;8.858;2023-07-08T11:31:39;3.20;;;2.10;;
23123;SDS011;11731;48.592;8.858;2023-07-08T11:34:20;6.70;;;2.70;;
23123;SDS011;11731;48.592;8.858;2023-07-08T11:36:50;2.73;;;2.23;;
23123;SDS011;11731;48.592;8.858;2023-07-08T11:39:28;2.90;;;2.10;;
23123;SDS011;11731;48.592;8.858;2023-07-08T11:42:11;3.80;;;2.13;;
23123;SDS011;11731;48.592;8.858;2023-07-08T11:44:59;3.10;;;2.00;;
23123;SDS011;11731;48.592;8.858;2023-07-08T11:47:32;2.67;;;1.90;;
23123;SDS011;11731;48.592;8.858;2023-07-08T11:50:03;2.40;;;2.03;;
23123;SDS011;11731;48.592;8.858;2023-07-08T11:52:47;2.57;;;2.10;;
23123;SDS011;11731;48.592;8.858;2023-07-08T11:55:20;2.93;;;2.17;;
23123;SDS011;11731;48.592;8.858;2023-07-08T11:57:54;2.37;;;2.00;;
23123;SDS011;11731;48.592;8.858;2023-07-08T12:00:24;2.77;;;1.83;;
23123;SDS011;11731;48.592;8.858;2023-07-08T12:02:53;4.27;;;2.03;;
23123;SDS011;11731;48.592;8.858;2023-07-08T12:05:31;3.43;;;1.73;;
23123;SDS011;11731;48.592;8.858;2023-07-08T12:07:59;1.80;;;1.60;;
23123;SDS011;11731;48.592;8.858;2023-07-08T12:10:30;2.23;;;1.90;;
23123;SDS011;11731;48.592;8.858;2023-07-08T12:13:00;2.63;;;1.70;;
23123;SDS011;11731;48.592;8.858;2023-07-08T12:15:30;2.03;;;1.80;;
23123;SDS011;11731;48.592;8.858;2023-07-08T12:17:59;3.37;;;1.90;;
23123;SDS011;11731;48.592;8.858;2023-07-08T12:20:34;2.10;;;1.73;;
23123;SDS011;11731;48.592;8.858;2023-07-08T12:23:03;3.17;;;2.07;;
23123;SDS011;11731;48.592;8.858;2023-07-08T12:25:56;2.77;;;1.63;;
23123;SDS011;11731;48.592;8.858;2023-07-08T12:28:23;2.30;;;1.97;;
23123;SDS011;11731;48.592;8.858;2023-07-08T12:30:52;5.13;;;1.83;;
23123;SDS011;11731;48.592;8.858;2023-07-08T12:33:24;2.57;;;1.80;;
23123;SDS011;11731;48.592;8.858;2023-07-08T12:35:54;4.37;;;2.20;;
23123;SDS011;11731;48.592;8.858;2023-07-08T12:38:23;3.07;;;1.60;;
23123;SDS011;11731;48.592;8.858;2023-07-08T12:40:54;3.17;;;1.90;;
23123;SDS011;11731;48.592;8.858;2023-07-08T12:43:36;4.60;;;1.90;;
23123;SDS011;11731;48.592;8.858;2023-07-08T12:46:08;2.83;;;1.93;;
23123;SDS011;11731;48.592;8.858;2023-07-08T12:48:35;2.03;;;1.57;;
23123;SDS011;11731;48.592;8.858;2023-07-08T12:51:03;2.17;;;1.97;;
23123;SDS011;11731;48.592;8.858;2023-07-08T12:53:30;3.20;;;2.00;;
23123;SDS011;11731;48.592;8.858;2023-07-08T12:56:01;5.03;;;2.10;;
23123;SDS011;11731;48.592;8.858;2023-07-08T12:58:28;2.20;;;1.80;;
23123;SDS011;11731;48.592;8.858;2023-07-08T13:00:59;5.07;;;1.77;;
23123;SDS011;11731;48.592;8.858;2023-07-08T13:03:31;3.83;;;1.83;;
23123;SDS011;11731;48.592;8.858;2023-07-08T13:06:02;3.20;;;1.90;;
23123;SDS011;11731;48.592;8.858;2023-07-08T13:08:30;1.90;;;1.60;;
23123;SDS011;11731;48.592;8.858;2023-07-08T13:11:01;4.60;;;1.80;;
23123;SDS011;11731;48.592;8.858;2023-07-08T13:13:30;2.27;;;1.60;;
23123;SDS011;11731;48.592;8.858;2023-07-08T13:16:01;2.70;;;1.80;;
23123;SDS011;11731;48.592;8.858;2023-07-08T13:18:31;2.33;;;1.57;;
23123;SDS011;11731;48.592;8.858;2023-07-08T13:21:00;4.30;;;2.07;;
23123;SDS011;11731;48.592;8.858;2023-07-08T13:23:28;3.07;;;1.87;;
23123;SDS011;11731;48.592;8.858;2023-07-08T13:25:55;2.37;;;1.97;;
23123;SDS011;11731;48.592;8.858;2023-07-08T13:28:23;3.47;;;2.00;;
23123;SDS011;11731;48.592;8.858;2023-07-08T13:30:52;2.90;;;1.50;;
23123;SDS011;11731;48.592;8.858;2023-07-08T13:33:20;4.17;;;2.10;;
23123;SDS011;11731;48.592;8.858;2023-07-08T13:35:49;3.60;;;1.90;;
23123;SDS011;11731;48.592;8.858;2023-07-08T13:38:18;2.20;;;1.93;;
23123;SDS011;11731;48.592;8.858;2023-07-08T13:40:48;2.93;;;1.70;;
23123;SDS011;11731;48.592;8.858;2023-07-08T13:43:22;5.25;;;1.98;;
23123;SDS011;11731;48.592;8.858;2023-07-08T13:45:49;2.67;;;1.97;;
23123;SDS011;11731;48.592;8.858;2023-07-08T13:48:18;3.60;;;1.97;;
23123;SDS011;11731;48.592;8.858;2023-07-08T13:50:53;2.23;;;2.00;;
23123;SDS011;11731;48.592;8.858;2023-07-08T13:53:24;2.47;;;1.70;;
23123;SDS011;11731;48.592;8.858;2023-07-08T13:56:00;2.45;;;1.85;;
23123;SDS011;11731;48.592;8.858;2023-07-08T13:58:29;3.08;;;1.90;;
23123;SDS011;11731;48.592;8.858;2023-07-08T14:00:57;2.03;;;1.83;;
23123;SDS011;11731;48.592;8.858;2023-07-08T14:03:24;3.60;;;1.83;;
23123;SDS011;11731;48.592;8.858;2023-07-08T14:05:53;3.45;;;1.95;;
23123;SDS011;11731;48.592;8.858;2023-07-08T14:08:20;4.70;;;2.10;;
23123;SDS011;11731;48.592;8.858;2023-07-08T14:10:47;2.33;;;1.70;;
23123;SDS011;11731;48.592;8.858;2023-07-08T14:13:14;3.72;;;2.20;;
23123;SDS011;11731;48.592;8.858;2023-07-08T14:15:43;3.22;;;1.90;;
23123;SDS011;11731;48.592;8.858;2023-07-08T14:18:11;2.55;;;1.65;;
23123;SDS011;11731;48.592;8.858;2023-07-08T14:20:39;5.05;;;2.38;;
23123;SDS011;11731;48.592;8.858;2023-07-08T14:23:09;2.53;;;1.80;;
23123;SDS011;11731;48.592;8.858;2023-07-08T14:25:43;2.28;;;1.65;;
23123;SDS011;11731;48.592;8.858;2023-07-08T14:28:48;2.42;;;1.75;;
23123;SDS011;11731;48.592;8.858;2023-07-08T14:31:20;2.35;;;1.65;;
23123;SDS011;11731;48.592;8.858;2023-07-08T14:33:48;4.20;;;1.90;;
23123;SDS011;11731;48.592;8.858;2023-07-08T14:36:16;2.45;;;2.00;;
23123;SDS011;11731;48.592;8.858;2023-07-08T14:38:45;4.35;;;1.88;;
23123;SDS011;11731;48.592;8.858;2023-07-08T14:41:26;3.45;;;2.13;;
23123;SDS011;11731;48.592;8.858;2023-07-08T14:46:50;2.83;;;1.85;;
23123;SDS011;11731;48.592;8.858;2023-07-08T14:49:18;2.42;;;2.22;;
23123;SDS011;11731;48.592;8.858;2023-07-08T14:51:48;2.45;;;1.90;;
23123;SDS011;11731;48.592;8.858;2023-07-08T14:57:06;2.40;;;1.90;;
23123;SDS011;11731;48.592;8.858;2023-07-08T14:59:41;3.47;;;1.90;;
23123;SDS011;11731;48.592;8.858;2023-07-08T15:02:17;4.75;;;2.00;;
23123;SDS011;11731;48.592;8.858;2023-07-08T15:04:47;3.25;;;2.83;;
23123;SDS011;11731;48.592;8.858;2023-07-08T15:07:47;4.82;;;2.75;;
23123;SDS011;11731;48.592;8.858;2023-07-08T15:13:20;2.60;;;2.27;;
23123;SDS011;11731;48.592;8.858;2023-07-08T15:15:53;3.85;;;1.90;;
23123;SDS011;11731;48.592;8.858;2023-07-08T15:18:20;2.70;;;2.13;;
23123;SDS011;11731;48.592;8.858;2023-07-08T15:20:47;3.00;;;2.00;;
23123;SDS011;11731;48.592;8.858;2023-07-08T15:23:17;3.95;;;1.92;;
23123;SDS011;11731;48.592;8.858;2023-07-08T15:25:50;3.30;;;2.10;;
23123;SDS011;11731;48.592;8.858;2023-07-08T15:28:17;5.90;;;1.90;;
23123;SDS011;11731;48.592;8.858;2023-07-08T15:30:50;2.95;;;2.13;;
23123;SDS011;11731;48.592;8.858;2023-07-08T15:33:31;2.53;;;2.00;;
23123;SDS011;11731;48.592;8.858;2023-07-08T15:35:58;2.58;;;2.25;;
23123;SDS011;11731;48.592;8.858;2023-07-08T15:38:25;5.22;;;2.08;;
23123;SDS011;11731;48.592;8.858;2023-07-08T15:40:52;3.42;;;2.13;;
23123;SDS011;11731;48.592;8.858;2023-07-08T15:43:19;4.10;;;2.17;;
23123;SDS011;11731;48.592;8.858;2023-07-08T15:45:46;2.83;;;2.00;;
23123;SDS011;11731;48.592;8.858;2023-07-08T15:48:15;3.17;;;1.85;;
23123;SDS011;11731;48.592;8.858;2023-07-08T15:51:07;3.25;;;1.90;;
23123;SDS011;11731;48.592;8.858;2023-07-08T15:53:34;3.72;;;1.83;;
23123;SDS011;11731;48.592;8.858;2023-07-08T15:56:01;3.33;;;1.75;;
23123;SDS011;11731;48.592;8.858;2023-07-08T15:58:29;2.67;;;1.65;;
23123;SDS011;11731;48.592;8.858;2023-07-08T16:00:58;2.80;;;1.92;;
23123;SDS011;11731;48.592;8.858;2023-07-08T16:03:28;3.80;;;1.92;;
23123;SDS011;11731;48.592;8.858;2023-07-08T16:05:56;5.80;;;2.05;;
23123;SDS011;11731;48.592;8.858;2023-07-08T16:08:24;3.05;;;1.90;;
23123;SDS011;11731;48.592;8.858;2023-07-08T16:10:52;3.38;;;1.90;;
23123;SDS011;11731;48.592;8.858;2023-07-08T16:13:22;3.25;;;1.90;;
23123;SDS011;11731;48.592;8.858;2023-07-08T16:15:52;3.08;;;2.28;;
23123;SDS011;11731;48.592;8.858;2023-07-08T16:18:19;3.22;;;2.00;;